Hermosa Beach, California
Current Conditions -  °F | °C
As of 3:53 PM on Friday 24 Oct 2014 (Local Time) from KLAX Reporting Station
Few Clouds Few Clouds  
Wind Chill: 76°   Ceiling: Unl
Heat Index: 76°   Visibility: 9mi
Dew Point: 63°   Wind: 9mph
Humidity: 64%   Direction: 270°W
Pressure: 29.93"   Gusts: NA
Location:  33.86°N, 118.39°W
Report Text: KLAX 242253Z 27008KT 9SM FEW010 24/17 A2993 RMK AO2 SLP134 T02440172 $
Loading
Personal Weather Stations






























Interactive Weather Map
Tropical Storm Tracking
New forecast layout! Learn more

10-Day Weather Forecast

Advertisements
Track Severe Weather on mobile